createdAt,value
2022-11-23T00:01:19.863Z,89.39
2022-11-23T00:04:13.765Z,89.00
2022-11-23T00:07:03.083Z,88.35
2022-11-23T00:09:54.475Z,88.28
2022-11-23T00:12:44.099Z,87.37
2022-11-23T00:15:33.739Z,87.60
2022-11-23T00:18:23.023Z,87.53
2022-11-23T00:21:16.519Z,87.14
2022-11-23T00:24:06.698Z,86.86
2022-11-23T00:26:56.064Z,87.09
2022-11-23T00:29:48.935Z,86.56
2022-11-23T00:32:38.299Z,87.30
2022-11-23T00:35:29.504Z,87.46
2022-11-23T00:38:20.213Z,87.06
2022-11-23T00:41:14.464Z,87.23
2022-11-23T00:44:04.482Z,87.21
2022-11-23T00:46:55.753Z,87.15
2022-11-23T00:49:44.999Z,87.59
2022-11-23T00:52:34.324Z,88.15
2022-11-23T00:55:27.299Z,88.71
2022-11-23T00:58:16.581Z,88.70
2022-11-23T01:01:09.927Z,87.85
2022-11-23T01:04:01.298Z,87.68
2022-11-23T01:06:52.121Z,86.92
2022-11-23T01:09:41.433Z,86.17
2022-11-23T01:12:32.384Z,85.14
2022-11-23T01:15:21.713Z,85.14
2022-11-23T01:18:11.096Z,85.17
2022-11-23T01:21:03.232Z,84.81
2022-11-23T01:23:54.178Z,84.86
2022-11-23T01:26:44.183Z,84.69
2022-11-23T01:29:35.139Z,84.97
2022-11-23T01:32:24.540Z,85.02
2022-11-23T01:35:13.999Z,85.02
2022-11-23T01:38:03.548Z,85.01
2022-11-23T01:40:52.840Z,85.30
2022-11-23T01:43:42.600Z,86.16
2022-11-23T01:46:33.537Z,87.17
2022-11-23T01:49:23.832Z,88.45
2022-11-23T01:52:17.266Z,87.89
2022-11-23T01:55:08.716Z,87.90
2022-11-23T01:57:58.503Z,88.43
2022-11-23T02:00:47.961Z,88.12
2022-11-23T02:03:42.653Z,88.11
2022-11-23T02:06:33.172Z,88.31
2022-11-23T02:09:25.670Z,89.17
2022-11-23T02:12:16.188Z,88.22
2022-11-23T02:15:07.265Z,88.72
2022-11-23T02:17:57.452Z,88.96
2022-11-23T02:20:48.492Z,89.48
2022-11-23T02:23:47.779Z,90.65
2022-11-23T02:26:39.220Z,92.29
2022-11-23T02:29:29.929Z,92.45
2022-11-23T02:32:26.207Z,92.81
2022-11-23T02:35:18.520Z,94.02
2022-11-23T02:38:08.088Z,93.22
2022-11-23T02:40:57.666Z,94.24
2022-11-23T02:43:52.201Z,94.45
2022-11-23T02:46:41.684Z,94.70
2022-11-23T02:49:31.315Z,95.01
2022-11-23T02:52:20.961Z,96.38
2022-11-23T02:55:11.695Z,96.55
2022-11-23T02:58:01.023Z,97.53
2022-11-23T03:00:52.902Z,96.36
2022-11-23T03:03:42.263Z,96.19
2022-11-23T03:06:31.468Z,96.82
2022-11-23T03:09:20.906Z,96.67
2022-11-23T03:12:10.317Z,96.97
2022-11-23T03:15:00.642Z,98.75
2022-11-23T03:17:53.938Z,98.23
2022-11-23T03:20:43.640Z,97.84
2022-11-23T03:23:33.344Z,99.48
2022-11-23T03:26:27.205Z,99.80
2022-11-23T03:29:26.835Z,99.38
2022-11-23T03:32:18.849Z,99.15
2022-11-23T03:35:13.127Z,99.68
2022-11-23T03:38:22.182Z,100.00
2022-11-23T03:41:11.671Z,99.66
2022-11-23T03:44:14.833Z,100.00
2022-11-23T03:47:05.529Z,99.73
2022-11-23T03:49:57.459Z,100.00
2022-11-23T03:52:50.480Z,100.00
2022-11-23T03:55:39.624Z,100.00
2022-11-23T03:58:28.945Z,100.00
2022-11-23T04:01:18.392Z,100.00
2022-11-23T04:04:11.243Z,100.00
2022-11-23T04:07:15.561Z,100.00
2022-11-23T04:10:13.060Z,100.00
2022-11-23T04:13:26.428Z,100.00
2022-11-23T04:16:16.306Z,100.00
2022-11-23T04:19:05.688Z,100.00
2022-11-23T04:21:55.296Z,100.00
2022-11-23T04:24:44.907Z,100.00
2022-11-23T04:27:35.865Z,99.66
2022-11-23T04:30:25.847Z,97.35
2022-11-23T04:33:18.095Z,96.06
2022-11-23T04:36:08.291Z,94.92
2022-11-23T04:38:57.867Z,94.33
2022-11-23T04:41:57.627Z,95.71
2022-11-23T04:44:48.586Z,95.92
2022-11-23T04:47:39.931Z,95.77
2022-11-23T04:50:34.270Z,95.79
2022-11-23T04:53:24.966Z,95.61
2022-11-23T04:56:14.518Z,95.50
2022-11-23T04:59:05.226Z,95.36
2022-11-23T05:01:56.736Z,95.31
2022-11-23T05:05:10.237Z,94.58
2022-11-23T05:08:00.087Z,95.01
2022-11-23T05:11:02.498Z,94.31
2022-11-23T05:13:52.065Z,93.40
2022-11-23T05:16:41.712Z,93.43
2022-11-23T05:19:33.130Z,92.85
2022-11-23T05:22:22.828Z,92.25
2022-11-23T05:25:12.325Z,92.30
2022-11-23T05:28:11.397Z,92.20
2022-11-23T05:31:11.647Z,92.29
2022-11-23T05:34:01.076Z,92.19
2022-11-23T05:37:02.001Z,91.96
2022-11-23T05:39:51.667Z,92.30
2022-11-23T05:42:42.357Z,92.03
2022-11-23T05:45:37.683Z,91.97
2022-11-23T05:48:27.500Z,92.31
2022-11-23T05:51:20.164Z,91.74
2022-11-23T05:54:12.832Z,92.55
2022-11-23T05:57:07.140Z,92.62
2022-11-23T06:00:01.884Z,93.30
2022-11-23T06:03:02.758Z,93.73
2022-11-23T06:05:54.178Z,93.19
2022-11-23T06:08:50.751Z,93.55
2022-11-23T06:11:44.634Z,93.47
2022-11-23T06:14:37.648Z,93.47
2022-11-23T06:17:27.864Z,93.01
2022-11-23T06:20:22.866Z,93.02
2022-11-23T06:23:21.607Z,92.94
2022-11-23T06:26:12.142Z,92.89
2022-11-23T06:29:04.522Z,92.50
2022-11-23T06:31:55.513Z,92.63
2022-11-23T06:34:44.985Z,92.20
2022-11-23T06:37:34.918Z,91.69
2022-11-23T06:40:24.303Z,90.92
2022-11-23T06:43:14.360Z,90.59
2022-11-23T06:46:08.607Z,90.26
2022-11-23T06:49:02.438Z,90.38
2022-11-23T06:51:51.817Z,90.36
2022-11-23T06:54:41.648Z,89.99
2022-11-23T06:57:31.395Z,90.21
2022-11-23T07:00:21.637Z,89.88
2022-11-23T07:03:23.852Z,89.67
2022-11-23T07:06:21.055Z,89.35
2022-11-23T07:09:13.845Z,89.13
2022-11-23T07:12:14.289Z,88.75
2022-11-23T07:15:05.539Z,88.85
2022-11-23T07:18:00.170Z,88.68
2022-11-23T07:20:51.363Z,88.15
2022-11-23T07:23:41.702Z,88.41
2022-11-23T07:26:31.357Z,87.96
2022-11-23T07:29:20.681Z,87.92
2022-11-23T07:32:10.133Z,87.68
2022-11-23T07:34:59.743Z,88.04
2022-11-23T07:37:52.265Z,87.90
2022-11-23T07:40:42.654Z,87.62
2022-11-23T07:43:43.097Z,87.33
2022-11-23T07:46:32.279Z,87.24
2022-11-23T07:49:21.785Z,86.94
2022-11-23T07:52:11.385Z,86.96
2022-11-23T07:55:01.995Z,87.13
2022-11-23T07:57:54.871Z,86.65
2022-11-23T08:00:44.402Z,86.46
2022-11-23T08:03:33.869Z,86.63
2022-11-23T08:06:23.361Z,86.16
2022-11-23T08:09:12.737Z,86.10
2022-11-23T08:12:03.403Z,85.56
2022-11-23T08:14:52.792Z,85.75
2022-11-23T08:17:42.056Z,84.99
2022-11-23T08:20:33.460Z,85.35
2022-11-23T08:23:23.266Z,84.36
2022-11-23T08:26:13.967Z,84.24
2022-11-23T08:29:05.042Z,84.10
2022-11-23T08:31:54.759Z,83.36
2022-11-23T08:34:45.285Z,83.63
2022-11-23T08:37:34.599Z,83.71
2022-11-23T08:40:25.771Z,83.19
2022-11-23T08:43:15.232Z,83.11
2022-11-23T08:46:10.897Z,83.07
2022-11-23T08:49:00.570Z,82.72
2022-11-23T08:51:50.459Z,82.25
2022-11-23T08:54:39.915Z,82.42
2022-11-23T08:57:29.874Z,81.99
2022-11-23T09:00:20.734Z,81.63
2022-11-23T09:03:11.516Z,81.65
2022-11-23T09:06:02.046Z,81.71
2022-11-23T09:08:51.386Z,81.32
2022-11-23T09:11:40.713Z,81.68
2022-11-23T09:14:30.763Z,81.43
2022-11-23T09:17:20.434Z,81.15
2022-11-23T09:20:13.096Z,80.96
2022-11-23T09:23:02.682Z,81.18
2022-11-23T09:25:52.014Z,81.01
2022-11-23T09:28:44.736Z,80.44
2022-11-23T09:31:34.564Z,80.64
2022-11-23T09:34:24.201Z,80.24
2022-11-23T09:37:15.655Z,80.28
2022-11-23T09:40:06.235Z,80.03
2022-11-23T09:43:13.789Z,79.42
2022-11-23T09:46:12.320Z,79.66
2022-11-23T09:49:15.291Z,79.33
2022-11-23T09:52:04.913Z,79.53
2022-11-23T09:54:59.666Z,78.63
2022-11-23T09:57:50.484Z,79.18
2022-11-23T10:00:45.318Z,78.42
2022-11-23T10:03:42.674Z,78.67
2022-11-23T10:06:41.530Z,78.49
2022-11-23T10:09:40.972Z,78.40
2022-11-23T10:12:46.000Z,78.39
2022-11-23T10:15:46.930Z,77.94
2022-11-23T10:18:48.179Z,76.85
2022-11-23T10:21:51.186Z,76.19
2022-11-23T10:24:50.442Z,76.33
2022-11-23T10:27:41.261Z,75.62
2022-11-23T10:30:30.595Z,75.98
2022-11-23T10:33:31.359Z,75.81
2022-11-23T10:36:20.912Z,75.76
2022-11-23T10:39:22.913Z,74.66
2022-11-23T10:42:26.994Z,75.03
2022-11-23T10:45:24.047Z,74.62
2022-11-23T10:48:13.646Z,74.70
2022-11-23T10:51:22.529Z,74.44
2022-11-23T10:54:23.680Z,74.10
2022-11-23T10:57:32.388Z,73.89
2022-11-23T11:00:30.518Z,73.99
2022-11-23T11:03:25.394Z,73.71
2022-11-23T11:06:25.735Z,74.18
2022-11-23T11:09:22.375Z,73.79
2022-11-23T11:12:18.662Z,73.13
2022-11-23T11:15:17.958Z,73.26
2022-11-23T11:18:21.009Z,73.26
2022-11-23T11:21:21.954Z,72.70
2022-11-23T11:24:21.499Z,72.78
2022-11-23T11:27:18.347Z,73.53
2022-11-23T11:30:22.036Z,70.51
2022-11-23T11:33:21.214Z,65.82
2022-11-23T11:36:14.348Z,66.45
2022-11-23T11:39:18.193Z,61.94
2022-11-23T11:42:18.091Z,61.59
2022-11-23T11:45:26.834Z,61.26
2022-11-23T11:48:23.908Z,61.41
2022-11-23T11:51:21.855Z,61.64
2022-11-23T11:54:22.715Z,61.69
2022-11-23T11:57:20.875Z,61.65
2022-11-23T12:00:19.245Z,60.79
2022-11-23T12:03:21.095Z,60.16
2022-11-23T12:06:23.698Z,57.45
2022-11-23T12:09:21.613Z,59.00
2022-11-23T12:12:17.814Z,57.00
2022-11-23T12:15:33.609Z,55.64
2022-11-23T12:18:52.944Z,56.85
2022-11-23T12:22:33.831Z,56.72
2022-11-23T12:25:33.558Z,56.06
2022-11-23T12:28:47.224Z,55.99
2022-11-23T12:31:45.165Z,56.22
2022-11-23T12:34:57.712Z,55.37
2022-11-23T12:38:04.125Z,55.59
2022-11-23T12:41:18.685Z,55.72
2022-11-23T12:44:45.458Z,55.58
2022-11-23T12:47:52.000Z,56.15
2022-11-23T12:50:51.022Z,56.64
2022-11-23T12:53:56.076Z,56.47
2022-11-23T12:57:02.356Z,57.64
2022-11-23T12:59:59.632Z,57.95
2022-11-23T13:03:28.604Z,57.43
2022-11-23T13:07:27.394Z,56.25
2022-11-23T13:10:30.632Z,55.73
2022-11-23T13:13:49.923Z,55.62
2022-11-23T13:17:06.206Z,56.46
2022-11-23T13:20:31.185Z,58.33
2022-11-23T13:23:22.787Z,58.85
2022-11-23T13:26:21.320Z,60.13
2022-11-23T13:30:01.367Z,61.14
2022-11-23T13:32:59.366Z,62.08
2022-11-23T13:36:05.194Z,61.89
2022-11-23T13:39:00.146Z,62.00
2022-11-23T13:42:02.702Z,61.90
2022-11-23T13:45:28.850Z,61.68
2022-11-23T13:48:54.868Z,61.83
2022-11-23T13:51:32.833Z,61.69
2022-11-23T13:54:24.949Z,62.15
2022-11-23T13:57:15.198Z,62.00
2022-11-23T14:00:51.324Z,62.15
2022-11-23T14:03:53.884Z,62.35
2022-11-23T14:06:51.399Z,63.48
2022-11-23T14:09:50.163Z,63.74
2022-11-23T14:12:50.329Z,63.76
2022-11-23T14:15:42.655Z,63.99
2022-11-23T14:18:52.815Z,63.87
2022-11-23T14:21:55.369Z,63.68
2022-11-23T14:25:25.233Z,63.47
2022-11-23T14:28:35.510Z,63.85
2022-11-23T14:31:36.398Z,64.41
2022-11-23T14:34:35.912Z,65.01
2022-11-23T14:37:37.683Z,65.71
2022-11-23T14:40:32.248Z,66.72
2022-11-23T14:43:22.427Z,67.67
2022-11-23T14:46:19.487Z,68.23
2022-11-23T14:49:15.718Z,68.55
2022-11-23T14:52:08.039Z,69.06
2022-11-23T14:55:00.289Z,69.67
2022-11-23T14:57:53.811Z,69.33
2022-11-23T15:00:45.880Z,69.56
2022-11-23T15:03:50.572Z,69.95
2022-11-23T15:06:46.682Z,69.43
2022-11-23T15:09:51.523Z,69.08
2022-11-23T15:12:46.790Z,68.63
2022-11-23T15:15:39.626Z,68.29
2022-11-23T15:18:32.330Z,67.48
2022-11-23T15:21:27.528Z,66.70
2022-11-23T15:24:25.670Z,66.99
2022-11-23T15:27:28.809Z,66.74
2022-11-23T15:30:21.484Z,66.85
2022-11-23T15:33:12.622Z,66.36
2022-11-23T15:36:03.143Z,65.89
2022-11-23T15:38:53.073Z,65.25
2022-11-23T15:41:42.436Z,64.98
2022-11-23T15:44:35.949Z,64.11
2022-11-23T15:47:28.646Z,64.37
2022-11-23T15:50:18.433Z,64.15
2022-11-23T15:53:10.017Z,63.75
2022-11-23T15:56:04.249Z,63.58
2022-11-23T15:58:55.355Z,63.20
2022-11-23T16:01:46.523Z,63.34
2022-11-23T16:04:40.785Z,65.33
2022-11-23T16:07:31.536Z,67.25
2022-11-23T16:10:23.467Z,69.25
2022-11-23T16:13:38.051Z,73.12
2022-11-23T16:16:27.573Z,75.76
2022-11-23T16:19:30.783Z,78.05
2022-11-23T16:22:30.395Z,79.35
2022-11-23T16:25:28.675Z,79.33
2022-11-23T16:28:24.618Z,80.10
2022-11-23T16:31:30.529Z,79.46
2022-11-23T16:34:20.860Z,78.88
2022-11-23T16:37:11.686Z,78.37
2022-11-23T16:40:00.965Z,77.79
2022-11-23T16:42:53.914Z,77.83
2022-11-23T16:45:46.157Z,77.33
2022-11-23T16:48:43.449Z,77.18
2022-11-23T16:51:32.895Z,77.29
2022-11-23T16:54:25.403Z,77.21
2022-11-23T16:57:31.509Z,77.61
2022-11-23T17:00:24.191Z,78.13
2022-11-23T17:03:15.778Z,78.58
2022-11-23T17:06:07.007Z,78.88
2022-11-23T17:09:03.172Z,79.37
2022-11-23T17:11:58.336Z,79.92
2022-11-23T17:14:50.274Z,80.59
2022-11-23T17:17:39.531Z,80.62
2022-11-23T17:20:29.188Z,80.59
2022-11-23T17:23:18.725Z,82.34
2022-11-23T17:26:11.591Z,82.68
2022-11-23T17:29:04.637Z,82.99
2022-11-23T17:31:53.998Z,83.19
2022-11-23T17:34:43.273Z,83.16
2022-11-23T17:37:32.704Z,83.10
2022-11-23T17:40:24.558Z,83.08
2022-11-23T17:43:16.412Z,82.87
2022-11-23T17:46:07.988Z,82.76
2022-11-23T17:49:01.932Z,83.11
2022-11-23T17:51:51.254Z,82.99
2022-11-23T17:54:40.523Z,82.58
2022-11-23T17:57:29.870Z,82.60
2022-11-23T18:00:22.956Z,82.89
2022-11-23T18:03:13.797Z,83.13
2022-11-23T18:06:03.122Z,83.24
2022-11-23T18:08:53.408Z,83.37
2022-11-23T18:11:42.702Z,84.26
2022-11-23T18:14:32.523Z,84.40
2022-11-23T18:17:22.525Z,84.04
2022-11-23T18:20:13.912Z,84.50
2022-11-23T18:23:03.444Z,84.63
2022-11-23T18:26:00.679Z,84.58
2022-11-23T18:28:51.044Z,83.64
2022-11-23T18:31:40.446Z,83.16
2022-11-23T18:34:29.871Z,82.37
2022-11-23T18:37:20.651Z,81.83
2022-11-23T18:40:11.382Z,81.53
2022-11-23T18:43:00.822Z,80.43
2022-11-23T18:45:50.422Z,79.85
2022-11-23T18:48:39.951Z,79.80
2022-11-23T18:51:29.243Z,79.67
2022-11-23T18:54:19.879Z,79.51
2022-11-23T18:57:10.035Z,79.28
2022-11-23T18:59:59.469Z,78.93
2022-11-23T19:02:54.185Z,79.02
2022-11-23T19:05:43.593Z,78.90
2022-11-23T19:08:33.902Z,78.74
2022-11-23T19:11:27.523Z,78.62
2022-11-23T19:14:16.944Z,78.80
2022-11-23T19:17:06.293Z,77.95
2022-11-23T19:19:55.740Z,77.87
2022-11-23T19:22:45.131Z,78.07
2022-11-23T19:25:34.447Z,77.88
2022-11-23T19:28:25.128Z,77.52
2022-11-23T19:31:16.856Z,77.55
2022-11-23T19:34:07.720Z,77.46
2022-11-23T19:36:56.945Z,77.29
2022-11-23T19:39:46.955Z,77.24
2022-11-23T19:42:36.936Z,77.30
2022-11-23T19:45:27.769Z,77.13
2022-11-23T19:48:17.098Z,77.00
2022-11-23T19:51:08.858Z,77.11
2022-11-23T19:54:00.114Z,76.84
2022-11-23T19:56:51.695Z,76.92
2022-11-23T19:59:41.094Z,76.48
2022-11-23T20:02:31.820Z,76.46
2022-11-23T20:05:21.546Z,76.67
2022-11-23T20:08:11.004Z,76.32
2022-11-23T20:11:06.561Z,76.17
2022-11-23T20:13:56.053Z,75.81
2022-11-23T20:16:45.457Z,75.43
2022-11-23T20:19:36.174Z,74.72
2022-11-23T20:22:25.598Z,74.84
2022-11-23T20:25:15.607Z,74.81
2022-11-23T20:28:06.073Z,74.91
2022-11-23T20:30:55.441Z,74.66
2022-11-23T20:33:45.560Z,74.51
2022-11-23T20:36:38.611Z,74.44
2022-11-23T20:39:27.818Z,74.29
2022-11-23T20:42:17.150Z,73.92
2022-11-23T20:45:07.833Z,73.78
2022-11-23T20:47:57.820Z,73.63
2022-11-23T20:50:47.139Z,73.23
2022-11-23T20:53:38.102Z,73.24
2022-11-23T20:56:29.177Z,73.35
2022-11-23T20:59:19.934Z,73.27
2022-11-23T21:02:10.909Z,72.87
2022-11-23T21:05:00.327Z,73.28
2022-11-23T21:07:50.157Z,73.85
2022-11-23T21:10:58.701Z,74.24
2022-11-23T21:14:05.082Z,74.88
2022-11-23T21:16:56.975Z,75.08
2022-11-23T21:19:46.365Z,75.07
2022-11-23T21:22:36.145Z,75.00
2022-11-23T21:25:25.535Z,75.06
2022-11-23T21:28:16.312Z,75.28
2022-11-23T21:31:09.543Z,74.95
2022-11-23T21:34:05.198Z,75.15
2022-11-23T21:36:56.333Z,75.34
2022-11-23T21:39:52.491Z,75.40
2022-11-23T21:42:44.776Z,75.35
2022-11-23T21:45:35.609Z,75.67
2022-11-23T21:48:24.957Z,75.52
2022-11-23T21:51:16.947Z,76.48
2022-11-23T21:54:10.029Z,78.48
2022-11-23T21:56:59.357Z,78.27
2022-11-23T21:59:48.783Z,78.69
2022-11-23T22:02:39.600Z,79.31
2022-11-23T22:05:28.965Z,79.55
2022-11-23T22:08:33.851Z,79.90
2022-11-23T22:11:25.596Z,79.72
2022-11-23T22:14:18.642Z,79.48
2022-11-23T22:17:07.974Z,79.55
2022-11-23T22:19:58.675Z,79.43
2022-11-23T22:22:48.023Z,79.23
2022-11-23T22:25:37.390Z,80.24
2022-11-23T22:28:26.788Z,81.25
2022-11-23T22:31:19.252Z,81.84
2022-11-23T22:34:12.691Z,81.96
2022-11-23T22:37:08.863Z,82.25
2022-11-23T22:40:00.038Z,82.10
2022-11-23T22:42:49.424Z,82.47
2022-11-23T22:45:38.799Z,82.11
2022-11-23T22:48:28.083Z,82.58
2022-11-23T22:51:20.201Z,82.82
2022-11-23T22:54:11.179Z,83.41
2022-11-23T22:57:00.488Z,83.28
2022-11-23T22:59:49.767Z,83.63
2022-11-23T23:02:39.316Z,83.89
2022-11-23T23:05:29.004Z,83.44
2022-11-23T23:08:18.246Z,83.11
2022-11-23T23:11:09.531Z,82.69
2022-11-23T23:13:59.948Z,82.38
2022-11-23T23:16:49.299Z,81.67
2022-11-23T23:19:38.666Z,81.47
2022-11-23T23:22:27.993Z,81.01
2022-11-23T23:25:17.385Z,80.74
2022-11-23T23:28:08.173Z,80.62
2022-11-23T23:31:01.786Z,80.25
2022-11-23T23:33:51.169Z,79.61
2022-11-23T23:36:40.480Z,79.74
2022-11-23T23:39:29.739Z,79.58
2022-11-23T23:42:19.069Z,79.53
2022-11-23T23:45:11.146Z,79.28
2022-11-23T23:48:00.631Z,79.68
2022-11-23T23:53:39.397Z,80.21
2022-11-23T23:56:30.514Z,80.13
2022-11-23T23:59:20.123Z,80.47
